Terminal Aerodrome Forecast
Issued by NWS Twin Cities, MN

Home | Current Version | Previous Version | Text Only | Print | Product List | Glossary Off
Versions: 1 2 3 4 5 6 7 8 9 10 11 12 13 14 15 16 17

000
FTUS43 KMPX 181533 AAA
TAFEAU
TAF AMD
KEAU 181533Z 1816/1912 28005KT P6SM BKN250
     FM181900 28007KT P6SM SCT050 BKN100
     FM190200 29003KT P6SM SKC
     FM190900 27003KT 2SM BR SCT002=

USA.gov is the U.S. government's official web portal to all federal, state and local government web resources and services.